sensor_id;sensor_type;location;lat;lon;timestamp;P1;durP1;ratioP1;P2;durP2;ratioP2
22040;SDS011;11184;52.444;13.578;2022-08-01T00:02:27;3.38;;;3.05;;
22040;SDS011;11184;52.444;13.578;2022-08-01T00:05:12;4.13;;;3.25;;
22040;SDS011;11184;52.444;13.578;2022-08-01T00:07:58;3.20;;;2.90;;
22040;SDS011;11184;52.444;13.578;2022-08-01T00:10:42;8.07;;;3.17;;
22040;SDS011;11184;52.444;13.578;2022-08-01T00:13:27;3.30;;;3.00;;
22040;SDS011;11184;52.444;13.578;2022-08-01T00:16:12;5.35;;;3.20;;
22040;SDS011;11184;52.444;13.578;2022-08-01T00:18:57;3.50;;;3.20;;
22040;SDS011;11184;52.444;13.578;2022-08-01T00:21:41;5.63;;;3.38;;
22040;SDS011;11184;52.444;13.578;2022-08-01T00:24:26;8.35;;;3.33;;
22040;SDS011;11184;52.444;13.578;2022-08-01T00:27:10;5.63;;;3.55;;
22040;SDS011;11184;52.444;13.578;2022-08-01T00:29:55;3.90;;;3.50;;
22040;SDS011;11184;52.444;13.578;2022-08-01T00:32:41;3.97;;;3.67;;
22040;SDS011;11184;52.444;13.578;2022-08-01T00:35:26;4.13;;;3.83;;
22040;SDS011;11184;52.444;13.578;2022-08-01T00:38:10;4.82;;;2.65;;
22040;SDS011;11184;52.444;13.578;2022-08-01T00:40:55;8.40;;;3.33;;
22040;SDS011;11184;52.444;13.578;2022-08-01T00:43:39;3.50;;;3.20;;
22040;SDS011;11184;52.444;13.578;2022-08-01T00:46:24;5.35;;;3.50;;
22040;SDS011;11184;52.444;13.578;2022-08-01T00:49:09;3.25;;;2.95;;
22040;SDS011;11184;52.444;13.578;2022-08-01T00:51:54;3.45;;;3.17;;
22040;SDS011;11184;52.444;13.578;2022-08-01T00:54:38;5.30;;;3.47;;
22040;SDS011;11184;52.444;13.578;2022-08-01T00:57:23;5.88;;;3.70;;
22040;SDS011;11184;52.444;13.578;2022-08-01T01:00:08;4.35;;;3.92;;
22040;SDS011;11184;52.444;13.578;2022-08-01T01:02:53;5.38;;;3.88;;
22040;SDS011;11184;52.444;13.578;2022-08-01T01:05:47;3.63;;;3.33;;
22040;SDS011;11184;52.444;13.578;2022-08-01T01:08:39;9.07;;;3.33;;
22040;SDS011;11184;52.444;13.578;2022-08-01T01:11:26;3.63;;;3.13;;
22040;SDS011;11184;52.444;13.578;2022-08-01T01:14:16;4.05;;;3.75;;
22040;SDS011;11184;52.444;13.578;2022-08-01T01:17:06;7.82;;;4.20;;
22040;SDS011;11184;52.444;13.578;2022-08-01T01:19:54;5.25;;;4.68;;
22040;SDS011;11184;52.444;13.578;2022-08-01T01:22:46;4.13;;;3.15;;
22040;SDS011;11184;52.444;13.578;2022-08-01T01:28:20;6.60;;;3.25;;
22040;SDS011;11184;52.444;13.578;2022-08-01T01:31:05;4.13;;;3.50;;
22040;SDS011;11184;52.444;13.578;2022-08-01T01:33:51;4.05;;;3.28;;
22040;SDS011;11184;52.444;13.578;2022-08-01T01:36:37;3.70;;;3.25;;
22040;SDS011;11184;52.444;13.578;2022-08-01T01:39:24;4.47;;;3.38;;
22040;SDS011;11184;52.444;13.578;2022-08-01T01:42:09;4.43;;;3.45;;
22040;SDS011;11184;52.444;13.578;2022-08-01T01:44:55;4.28;;;3.88;;
22040;SDS011;11184;52.444;13.578;2022-08-01T01:47:40;5.18;;;3.70;;
22040;SDS011;11184;52.444;13.578;2022-08-01T01:50:25;6.80;;;3.38;;
22040;SDS011;11184;52.444;13.578;2022-08-01T01:53:10;4.05;;;3.65;;
22040;SDS011;11184;52.444;13.578;2022-08-01T01:55:57;5.93;;;4.10;;
22040;SDS011;11184;52.444;13.578;2022-08-01T01:58:42;3.33;;;2.95;;
22040;SDS011;11184;52.444;13.578;2022-08-01T02:01:28;4.40;;;3.70;;
22040;SDS011;11184;52.444;13.578;2022-08-01T02:04:13;3.30;;;3.08;;
22040;SDS011;11184;52.444;13.578;2022-08-01T02:06:58;4.15;;;3.85;;
22040;SDS011;11184;52.444;13.578;2022-08-01T02:09:43;5.10;;;4.00;;
22040;SDS011;11184;52.444;13.578;2022-08-01T02:12:29;4.88;;;3.95;;
22040;SDS011;11184;52.444;13.578;2022-08-01T02:15:17;5.18;;;4.03;;
22040;SDS011;11184;52.444;13.578;2022-08-01T02:18:03;3.47;;;3.20;;
22040;SDS011;11184;52.444;13.578;2022-08-01T02:20:48;3.58;;;3.28;;
22040;SDS011;11184;52.444;13.578;2022-08-01T02:23:34;4.03;;;3.72;;
22040;SDS011;11184;52.444;13.578;2022-08-01T02:26:20;4.68;;;4.28;;
22040;SDS011;11184;52.444;13.578;2022-08-01T02:29:07;5.57;;;3.97;;
22040;SDS011;11184;52.444;13.578;2022-08-01T02:31:54;4.95;;;3.47;;
22040;SDS011;11184;52.444;13.578;2022-08-01T02:34:39;4.30;;;4.00;;
22040;SDS011;11184;52.444;13.578;2022-08-01T02:37:24;3.97;;;3.67;;
22040;SDS011;11184;52.444;13.578;2022-08-01T02:40:11;4.15;;;3.80;;
22040;SDS011;11184;52.444;13.578;2022-08-01T02:42:56;4.60;;;4.30;;
22040;SDS011;11184;52.444;13.578;2022-08-01T02:45:45;4.47;;;4.03;;
22040;SDS011;11184;52.444;13.578;2022-08-01T02:48:36;4.25;;;3.85;;
22040;SDS011;11184;52.444;13.578;2022-08-01T02:51:22;4.28;;;3.97;;
22040;SDS011;11184;52.444;13.578;2022-08-01T02:54:08;6.10;;;5.60;;
22040;SDS011;11184;52.444;13.578;2022-08-01T02:56:52;4.60;;;4.25;;
22040;SDS011;11184;52.444;13.578;2022-08-01T02:59:39;5.70;;;4.85;;
22040;SDS011;11184;52.444;13.578;2022-08-01T03:02:24;4.65;;;4.22;;
22040;SDS011;11184;52.444;13.578;2022-08-01T03:05:11;8.85;;;4.72;;
22040;SDS011;11184;52.444;13.578;2022-08-01T03:07:56;5.13;;;4.28;;
22040;SDS011;11184;52.444;13.578;2022-08-01T03:10:42;5.45;;;4.53;;
22040;SDS011;11184;52.444;13.578;2022-08-01T03:13:29;4.55;;;4.25;;
22040;SDS011;11184;52.444;13.578;2022-08-01T03:16:13;4.78;;;4.18;;
22040;SDS011;11184;52.444;13.578;2022-08-01T03:18:59;5.55;;;4.30;;
22040;SDS011;11184;52.444;13.578;2022-08-01T03:21:45;5.50;;;4.97;;
22040;SDS011;11184;52.444;13.578;2022-08-01T03:24:31;4.75;;;4.28;;
22040;SDS011;11184;52.444;13.578;2022-08-01T03:27:21;5.88;;;5.30;;
22040;SDS011;11184;52.444;13.578;2022-08-01T03:30:07;13.38;;;5.43;;
22040;SDS011;11184;52.444;13.578;2022-08-01T03:32:52;9.55;;;5.22;;
22040;SDS011;11184;52.444;13.578;2022-08-01T03:35:39;5.40;;;5.00;;
22040;SDS011;11184;52.444;13.578;2022-08-01T03:38:25;6.47;;;4.15;;
22040;SDS011;11184;52.444;13.578;2022-08-01T03:41:16;5.65;;;5.18;;
22040;SDS011;11184;52.444;13.578;2022-08-01T03:44:05;4.80;;;4.50;;
22040;SDS011;11184;52.444;13.578;2022-08-01T03:46:56;5.55;;;5.15;;
22040;SDS011;11184;52.444;13.578;2022-08-01T03:49:43;5.45;;;4.95;;
22040;SDS011;11184;52.444;13.578;2022-08-01T03:52:28;5.97;;;5.03;;
22040;SDS011;11184;52.444;13.578;2022-08-01T03:55:14;4.93;;;4.63;;
22040;SDS011;11184;52.444;13.578;2022-08-01T03:58:00;4.70;;;4.20;;
22040;SDS011;11184;52.444;13.578;2022-08-01T04:00:45;8.35;;;4.70;;
22040;SDS011;11184;52.444;13.578;2022-08-01T04:03:31;5.32;;;4.80;;
22040;SDS011;11184;52.444;13.578;2022-08-01T04:06:16;8.48;;;5.20;;
22040;SDS011;11184;52.444;13.578;2022-08-01T04:09:01;4.47;;;4.13;;
22040;SDS011;11184;52.444;13.578;2022-08-01T04:11:46;9.07;;;4.78;;
22040;SDS011;11184;52.444;13.578;2022-08-01T04:14:30;4.68;;;4.28;;
22040;SDS011;11184;52.444;13.578;2022-08-01T04:17:16;7.68;;;5.00;;
22040;SDS011;11184;52.444;13.578;2022-08-01T04:20:00;5.43;;;4.75;;
22040;SDS011;11184;52.444;13.578;2022-08-01T04:22:45;4.68;;;4.28;;
22040;SDS011;11184;52.444;13.578;2022-08-01T04:25:32;8.15;;;4.63;;
22040;SDS011;11184;52.444;13.578;2022-08-01T04:28:17;4.97;;;4.57;;
22040;SDS011;11184;52.444;13.578;2022-08-01T04:31:03;5.93;;;5.43;;
22040;SDS011;11184;52.444;13.578;2022-08-01T04:33:50;6.15;;;4.90;;
22040;SDS011;11184;52.444;13.578;2022-08-01T04:36:35;4.28;;;3.97;;
22040;SDS011;11184;52.444;13.578;2022-08-01T04:39:21;6.03;;;5.32;;
22040;SDS011;11184;52.444;13.578;2022-08-01T04:42:08;6.35;;;4.88;;
22040;SDS011;11184;52.444;13.578;2022-08-01T04:44:52;6.68;;;4.95;;
22040;SDS011;11184;52.444;13.578;2022-08-01T04:47:37;9.50;;;5.50;;
22040;SDS011;11184;52.444;13.578;2022-08-01T04:50:22;5.68;;;5.28;;
22040;SDS011;11184;52.444;13.578;2022-08-01T04:53:14;7.25;;;6.65;;
22040;SDS011;11184;52.444;13.578;2022-08-01T04:56:03;6.72;;;6.13;;
22040;SDS011;11184;52.444;13.578;2022-08-01T04:58:47;10.80;;;9.70;;
22040;SDS011;11184;52.444;13.578;2022-08-01T05:01:52;8.77;;;8.02;;
22040;SDS011;11184;52.444;13.578;2022-08-01T05:04:37;10.35;;;9.35;;
22040;SDS011;11184;52.444;13.578;2022-08-01T05:07:22;7.90;;;6.93;;
22040;SDS011;11184;52.444;13.578;2022-08-01T05:10:08;7.40;;;6.70;;
22040;SDS011;11184;52.444;13.578;2022-08-01T05:12:53;8.90;;;8.05;;
22040;SDS011;11184;52.444;13.578;2022-08-01T05:15:38;11.82;;;7.82;;
22040;SDS011;11184;52.444;13.578;2022-08-01T05:18:23;9.00;;;8.18;;
22040;SDS011;11184;52.444;13.578;2022-08-01T05:21:07;10.15;;;8.82;;
22040;SDS011;11184;52.444;13.578;2022-08-01T05:23:52;9.95;;;8.95;;
22040;SDS011;11184;52.444;13.578;2022-08-01T05:26:36;9.98;;;9.18;;
22040;SDS011;11184;52.444;13.578;2022-08-01T05:29:21;9.00;;;8.10;;
22040;SDS011;11184;52.444;13.578;2022-08-01T05:32:06;12.60;;;11.57;;
22040;SDS011;11184;52.444;13.578;2022-08-01T05:34:51;11.35;;;8.80;;
22040;SDS011;11184;52.444;13.578;2022-08-01T05:37:36;10.10;;;9.20;;
22040;SDS011;11184;52.444;13.578;2022-08-01T05:40:20;12.27;;;11.02;;
22040;SDS011;11184;52.444;13.578;2022-08-01T05:43:05;9.93;;;9.13;;
22040;SDS011;11184;52.444;13.578;2022-08-01T05:45:50;10.98;;;10.02;;
22040;SDS011;11184;52.444;13.578;2022-08-01T05:48:34;10.95;;;9.85;;
22040;SDS011;11184;52.444;13.578;2022-08-01T05:51:19;11.38;;;10.27;;
22040;SDS011;11184;52.444;13.578;2022-08-01T05:54:03;10.27;;;9.27;;
22040;SDS011;11184;52.444;13.578;2022-08-01T05:56:48;9.52;;;8.85;;
22040;SDS011;11184;52.444;13.578;2022-08-01T05:59:33;8.65;;;7.68;;
22040;SDS011;11184;52.444;13.578;2022-08-01T06:02:17;9.20;;;8.43;;
22040;SDS011;11184;52.444;13.578;2022-08-01T06:05:02;9.45;;;8.65;;
22040;SDS011;11184;52.444;13.578;2022-08-01T06:07:47;8.18;;;7.38;;
22040;SDS011;11184;52.444;13.578;2022-08-01T06:10:31;7.55;;;6.97;;
22040;SDS011;11184;52.444;13.578;2022-08-01T06:13:16;7.15;;;6.50;;
22040;SDS011;11184;52.444;13.578;2022-08-01T06:16:02;6.72;;;5.88;;
22040;SDS011;11184;52.444;13.578;2022-08-01T06:18:47;6.18;;;5.63;;
22040;SDS011;11184;52.444;13.578;2022-08-01T06:21:31;7.43;;;6.82;;
22040;SDS011;11184;52.444;13.578;2022-08-01T06:24:16;7.15;;;6.45;;
22040;SDS011;11184;52.444;13.578;2022-08-01T06:27:01;6.05;;;5.53;;
22040;SDS011;11184;52.444;13.578;2022-08-01T06:29:46;5.78;;;5.28;;
22040;SDS011;11184;52.444;13.578;2022-08-01T06:32:30;5.85;;;5.20;;
22040;SDS011;11184;52.444;13.578;2022-08-01T06:35:15;4.50;;;4.10;;
22040;SDS011;11184;52.444;13.578;2022-08-01T06:38:01;4.30;;;3.92;;
22040;SDS011;11184;52.444;13.578;2022-08-01T06:40:46;4.32;;;3.92;;
22040;SDS011;11184;52.444;13.578;2022-08-01T06:43:31;6.15;;;3.95;;
22040;SDS011;11184;52.444;13.578;2022-08-01T06:46:15;5.00;;;4.05;;
22040;SDS011;11184;52.444;13.578;2022-08-01T06:49:00;7.07;;;3.85;;
22040;SDS011;11184;52.444;13.578;2022-08-01T06:51:45;3.97;;;3.65;;
22040;SDS011;11184;52.444;13.578;2022-08-01T06:54:30;6.07;;;4.82;;
22040;SDS011;11184;52.444;13.578;2022-08-01T06:57:14;3.90;;;3.58;;
22040;SDS011;11184;52.444;13.578;2022-08-01T07:00:05;5.13;;;4.72;;
22040;SDS011;11184;52.444;13.578;2022-08-01T07:02:56;7.70;;;5.20;;
22040;SDS011;11184;52.444;13.578;2022-08-01T07:05:42;6.00;;;5.43;;
22040;SDS011;11184;52.444;13.578;2022-08-01T07:08:26;6.05;;;5.28;;
22040;SDS011;11184;52.444;13.578;2022-08-01T07:11:11;7.00;;;6.07;;
22040;SDS011;11184;52.444;13.578;2022-08-01T07:13:56;7.07;;;5.47;;
22040;SDS011;11184;52.444;13.578;2022-08-01T07:16:40;5.90;;;5.43;;
22040;SDS011;11184;52.444;13.578;2022-08-01T07:19:25;9.57;;;4.55;;
22040;SDS011;11184;52.444;13.578;2022-08-01T07:22:10;5.43;;;4.93;;
22040;SDS011;11184;52.444;13.578;2022-08-01T07:24:55;5.28;;;4.45;;
22040;SDS011;11184;52.444;13.578;2022-08-01T07:27:39;4.38;;;4.07;;
22040;SDS011;11184;52.444;13.578;2022-08-01T07:30:24;5.18;;;3.90;;
22040;SDS011;11184;52.444;13.578;2022-08-01T07:33:09;4.18;;;3.75;;
22040;SDS011;11184;52.444;13.578;2022-08-01T07:35:54;3.53;;;2.88;;
22040;SDS011;11184;52.444;13.578;2022-08-01T07:38:39;3.65;;;3.35;;
22040;SDS011;11184;52.444;13.578;2022-08-01T07:41:23;3.40;;;2.25;;
22040;SDS011;11184;52.444;13.578;2022-08-01T07:44:08;6.45;;;3.45;;
22040;SDS011;11184;52.444;13.578;2022-08-01T07:46:52;5.22;;;3.00;;
22040;SDS011;11184;52.444;13.578;2022-08-01T07:49:37;4.40;;;3.10;;
22040;SDS011;11184;52.444;13.578;2022-08-01T07:52:23;4.32;;;3.00;;
22040;SDS011;11184;52.444;13.578;2022-08-01T07:55:08;3.03;;;2.35;;
22040;SDS011;11184;52.444;13.578;2022-08-01T07:57:52;3.40;;;2.75;;
22040;SDS011;11184;52.444;13.578;2022-08-01T08:00:37;2.85;;;2.33;;
22040;SDS011;11184;52.444;13.578;2022-08-01T08:03:22;5.05;;;2.22;;
22040;SDS011;11184;52.444;13.578;2022-08-01T08:06:06;4.20;;;3.05;;
22040;SDS011;11184;52.444;13.578;2022-08-01T08:08:51;2.95;;;2.30;;
22040;SDS011;11184;52.444;13.578;2022-08-01T08:11:36;4.22;;;3.00;;
22040;SDS011;11184;52.444;13.578;2022-08-01T08:14:21;2.55;;;2.35;;
22040;SDS011;11184;52.444;13.578;2022-08-01T08:17:07;2.65;;;2.35;;
22040;SDS011;11184;52.444;13.578;2022-08-01T08:19:52;3.42;;;2.45;;
22040;SDS011;11184;52.444;13.578;2022-08-01T08:22:37;1.70;;;1.55;;
22040;SDS011;11184;52.444;13.578;2022-08-01T08:25:21;4.00;;;2.40;;
22040;SDS011;11184;52.444;13.578;2022-08-01T08:28:06;2.50;;;2.30;;
22040;SDS011;11184;52.444;13.578;2022-08-01T08:30:51;3.53;;;2.88;;
22040;SDS011;11184;52.444;13.578;2022-08-01T08:33:38;4.82;;;3.40;;
22040;SDS011;11184;52.444;13.578;2022-08-01T08:36:23;7.72;;;5.15;;
22040;SDS011;11184;52.444;13.578;2022-08-01T08:39:08;5.57;;;4.68;;
22040;SDS011;11184;52.444;13.578;2022-08-01T08:41:53;3.75;;;3.40;;
22040;SDS011;11184;52.444;13.578;2022-08-01T08:44:39;4.32;;;3.28;;
22040;SDS011;11184;52.444;13.578;2022-08-01T08:47:24;6.75;;;3.28;;
22040;SDS011;11184;52.444;13.578;2022-08-01T08:50:10;6.32;;;5.60;;
22040;SDS011;11184;52.444;13.578;2022-08-01T08:52:54;9.50;;;5.43;;
22040;SDS011;11184;52.444;13.578;2022-08-01T08:55:40;4.75;;;3.55;;
22040;SDS011;11184;52.444;13.578;2022-08-01T08:58:26;4.32;;;4.00;;
22040;SDS011;11184;52.444;13.578;2022-08-01T09:01:11;9.40;;;4.82;;
22040;SDS011;11184;52.444;13.578;2022-08-01T09:03:56;4.25;;;3.63;;
22040;SDS011;11184;52.444;13.578;2022-08-01T09:06:41;4.43;;;3.58;;
22040;SDS011;11184;52.444;13.578;2022-08-01T09:09:26;3.63;;;3.08;;
22040;SDS011;11184;52.444;13.578;2022-08-01T09:12:10;2.97;;;2.75;;
22040;SDS011;11184;52.444;13.578;2022-08-01T09:14:55;3.53;;;3.22;;
22040;SDS011;11184;52.444;13.578;2022-08-01T09:17:40;3.20;;;2.15;;
22040;SDS011;11184;52.444;13.578;2022-08-01T09:20:25;3.35;;;2.92;;
22040;SDS011;11184;52.444;13.578;2022-08-01T09:23:30;5.55;;;2.95;;
22040;SDS011;11184;52.444;13.578;2022-08-01T09:26:17;4.47;;;2.92;;
22040;SDS011;11184;52.444;13.578;2022-08-01T09:29:04;3.58;;;2.17;;
22040;SDS011;11184;52.444;13.578;2022-08-01T09:31:49;5.88;;;2.15;;
22040;SDS011;11184;52.444;13.578;2022-08-01T09:34:34;1.95;;;1.80;;
22040;SDS011;11184;52.444;13.578;2022-08-01T09:37:18;1.75;;;1.58;;
22040;SDS011;11184;52.444;13.578;2022-08-01T09:40:13;1.77;;;1.52;;
22040;SDS011;11184;52.444;13.578;2022-08-01T09:43:10;1.65;;;0.98;;
22040;SDS011;11184;52.444;13.578;2022-08-01T09:45:55;2.88;;;1.23;;
22040;SDS011;11184;52.444;13.578;2022-08-01T09:48:56;1.17;;;0.98;;
22040;SDS011;11184;52.444;13.578;2022-08-01T09:51:41;1.70;;;1.20;;
22040;SDS011;11184;52.444;13.578;2022-08-01T09:54:30;2.13;;;1.10;;
22040;SDS011;11184;52.444;13.578;2022-08-01T09:57:15;3.22;;;1.52;;
22040;SDS011;11184;52.444;13.578;2022-08-01T10:00:01;1.52;;;0.80;;
22040;SDS011;11184;52.444;13.578;2022-08-01T10:02:46;5.57;;;0.95;;
22040;SDS011;11184;52.444;13.578;2022-08-01T10:05:31;3.03;;;1.33;;
22040;SDS011;11184;52.444;13.578;2022-08-01T10:08:17;2.17;;;0.90;;
22040;SDS011;11184;52.444;13.578;2022-08-01T10:11:09;2.55;;;1.10;;
22040;SDS011;11184;52.444;13.578;2022-08-01T10:13:54;2.42;;;1.08;;
22040;SDS011;11184;52.444;13.578;2022-08-01T10:16:39;1.60;;;1.25;;
22040;SDS011;11184;52.444;13.578;2022-08-01T10:19:25;1.85;;;1.27;;
22040;SDS011;11184;52.444;13.578;2022-08-01T10:22:11;1.77;;;1.15;;
22040;SDS011;11184;52.444;13.578;2022-08-01T10:25:03;4.93;;;1.45;;
22040;SDS011;11184;52.444;13.578;2022-08-01T10:27:52;2.45;;;1.40;;
22040;SDS011;11184;52.444;13.578;2022-08-01T10:30:40;2.13;;;1.27;;
22040;SDS011;11184;52.444;13.578;2022-08-01T10:33:25;5.00;;;1.55;;
22040;SDS011;11184;52.444;13.578;2022-08-01T10:36:10;5.55;;;1.35;;
22040;SDS011;11184;52.444;13.578;2022-08-01T10:38:54;2.30;;;1.63;;
22040;SDS011;11184;52.444;13.578;2022-08-01T10:41:39;4.60;;;1.35;;
22040;SDS011;11184;52.444;13.578;2022-08-01T10:44:24;1.20;;;1.10;;
22040;SDS011;11184;52.444;13.578;2022-08-01T10:47:10;1.25;;;0.95;;
22040;SDS011;11184;52.444;13.578;2022-08-01T10:53:03;1.65;;;1.00;;
22040;SDS011;11184;52.444;13.578;2022-08-01T10:58:46;1.98;;;0.70;;
22040;SDS011;11184;52.444;13.578;2022-08-01T11:01:31;5.63;;;1.00;;
22040;SDS011;11184;52.444;13.578;2022-08-01T11:04:16;6.30;;;1.20;;
22040;SDS011;11184;52.444;13.578;2022-08-01T11:09:47;1.27;;;0.90;;
22040;SDS011;11184;52.444;13.578;2022-08-01T11:12:37;1.15;;;0.60;;
22040;SDS011;11184;52.444;13.578;2022-08-01T11:15:22;1.38;;;0.80;;
22040;SDS011;11184;52.444;13.578;2022-08-01T11:21:27;2.03;;;1.30;;
22040;SDS011;11184;52.444;13.578;2022-08-01T11:27:30;1.58;;;1.10;;
22040;SDS011;11184;52.444;13.578;2022-08-01T11:33:00;1.52;;;0.82;;
22040;SDS011;11184;52.444;13.578;2022-08-01T11:39:09;0.98;;;0.80;;
22040;SDS011;11184;52.444;13.578;2022-08-01T11:41:54;1.35;;;0.70;;
22040;SDS011;11184;52.444;13.578;2022-08-01T11:44:48;2.33;;;0.95;;
22040;SDS011;11184;52.444;13.578;2022-08-01T11:47:43;2.20;;;0.60;;
22040;SDS011;11184;52.444;13.578;2022-08-01T11:50:29;1.40;;;0.73;;
22040;SDS011;11184;52.444;13.578;2022-08-01T11:53:14;1.17;;;0.70;;
22040;SDS011;11184;52.444;13.578;2022-08-01T11:55:59;1.67;;;0.77;;
22040;SDS011;11184;52.444;13.578;2022-08-01T11:58:45;1.20;;;0.80;;
22040;SDS011;11184;52.444;13.578;2022-08-01T12:01:29;2.00;;;1.15;;
22040;SDS011;11184;52.444;13.578;2022-08-01T12:04:14;4.57;;;1.50;;
22040;SDS011;11184;52.444;13.578;2022-08-01T12:07:11;5.32;;;1.30;;
22040;SDS011;11184;52.444;13.578;2022-08-01T12:13:09;4.65;;;1.00;;
22040;SDS011;11184;52.444;13.578;2022-08-01T12:15:54;3.13;;;1.60;;
22040;SDS011;11184;52.444;13.578;2022-08-01T12:18:40;1.25;;;0.98;;
22040;SDS011;11184;52.444;13.578;2022-08-01T12:21:25;3.05;;;1.10;;
22040;SDS011;11184;52.444;13.578;2022-08-01T12:24:09;1.00;;;0.68;;
22040;SDS011;11184;52.444;13.578;2022-08-01T12:26:54;3.10;;;1.17;;
22040;SDS011;11184;52.444;13.578;2022-08-01T12:29:39;2.00;;;0.75;;
22040;SDS011;11184;52.444;13.578;2022-08-01T12:32:29;1.02;;;0.90;;
22040;SDS011;11184;52.444;13.578;2022-08-01T12:35:16;0.82;;;0.68;;
22040;SDS011;11184;52.444;13.578;2022-08-01T12:38:03;2.63;;;0.88;;
22040;SDS011;11184;52.444;13.578;2022-08-01T12:40:47;1.00;;;0.43;;
22040;SDS011;11184;52.444;13.578;2022-08-01T12:43:32;0.70;;;0.40;;
22040;SDS011;11184;52.444;13.578;2022-08-01T12:46:18;1.92;;;0.68;;
22040;SDS011;11184;52.444;13.578;2022-08-01T12:49:02;0.80;;;0.70;;
22040;SDS011;11184;52.444;13.578;2022-08-01T12:51:48;0.68;;;0.57;;
22040;SDS011;11184;52.444;13.578;2022-08-01T12:58:02;4.00;;;0.60;;
22040;SDS011;11184;52.444;13.578;2022-08-01T13:00:48;3.22;;;0.43;;
22040;SDS011;11184;52.444;13.578;2022-08-01T13:03:33;1.73;;;1.10;;
22040;SDS011;11184;52.444;13.578;2022-08-01T13:06:18;3.83;;;0.90;;
22040;SDS011;11184;52.444;13.578;2022-08-01T13:09:06;3.35;;;0.90;;
22040;SDS011;11184;52.444;13.578;2022-08-01T13:11:51;1.02;;;0.70;;
22040;SDS011;11184;52.444;13.578;2022-08-01T13:14:39;3.45;;;0.65;;
22040;SDS011;11184;52.444;13.578;2022-08-01T13:17:33;0.88;;;0.80;;
22040;SDS011;11184;52.444;13.578;2022-08-01T13:20:24;1.20;;;0.80;;
22040;SDS011;11184;52.444;13.578;2022-08-01T13:23:16;1.95;;;0.80;;
22040;SDS011;11184;52.444;13.578;2022-08-01T13:26:01;3.53;;;0.90;;
22040;SDS011;11184;52.444;13.578;2022-08-01T13:28:45;5.25;;;0.80;;
22040;SDS011;11184;52.444;13.578;2022-08-01T13:31:33;1.45;;;0.98;;
22040;SDS011;11184;52.444;13.578;2022-08-01T13:34:18;0.75;;;0.65;;
22040;SDS011;11184;52.444;13.578;2022-08-01T13:37:13;1.33;;;0.85;;
22040;SDS011;11184;52.444;13.578;2022-08-01T13:39:58;2.28;;;0.80;;
22040;SDS011;11184;52.444;13.578;2022-08-01T13:42:42;1.75;;;0.90;;
22040;SDS011;11184;52.444;13.578;2022-08-01T13:45:27;2.85;;;0.68;;
22040;SDS011;11184;52.444;13.578;2022-08-01T13:48:12;1.13;;;0.80;;
22040;SDS011;11184;52.444;13.578;2022-08-01T13:50:56;2.35;;;1.08;;
22040;SDS011;11184;52.444;13.578;2022-08-01T13:53:41;5.35;;;1.30;;
22040;SDS011;11184;52.444;13.578;2022-08-01T13:56:26;1.20;;;1.10;;
22040;SDS011;11184;52.444;13.578;2022-08-01T13:59:11;1.30;;;0.90;;
22040;SDS011;11184;52.444;13.578;2022-08-01T14:01:56;1.00;;;0.90;;
22040;SDS011;11184;52.444;13.578;2022-08-01T14:04:41;2.20;;;1.17;;
22040;SDS011;11184;52.444;13.578;2022-08-01T14:07:25;0.70;;;0.55;;
22040;SDS011;11184;52.444;13.578;2022-08-01T14:10:10;3.35;;;1.15;;
22040;SDS011;11184;52.444;13.578;2022-08-01T14:12:55;1.17;;;0.85;;
22040;SDS011;11184;52.444;13.578;2022-08-01T14:15:41;1.33;;;0.90;;
22040;SDS011;11184;52.444;13.578;2022-08-01T14:18:25;4.93;;;1.05;;
22040;SDS011;11184;52.444;13.578;2022-08-01T14:21:10;2.75;;;0.90;;
22040;SDS011;11184;52.444;13.578;2022-08-01T14:23:55;3.25;;;0.90;;
22040;SDS011;11184;52.444;13.578;2022-08-01T14:26:40;2.80;;;1.08;;
22040;SDS011;11184;52.444;13.578;2022-08-01T14:29:24;3.35;;;1.10;;
22040;SDS011;11184;52.444;13.578;2022-08-01T14:32:09;1.42;;;1.15;;
22040;SDS011;11184;52.444;13.578;2022-08-01T14:34:54;1.77;;;1.10;;
22040;SDS011;11184;52.444;13.578;2022-08-01T14:37:40;3.42;;;1.23;;
22040;SDS011;11184;52.444;13.578;2022-08-01T14:40:24;4.57;;;1.50;;
22040;SDS011;11184;52.444;13.578;2022-08-01T14:43:09;2.30;;;1.25;;
22040;SDS011;11184;52.444;13.578;2022-08-01T14:45:53;2.80;;;0.90;;
22040;SDS011;11184;52.444;13.578;2022-08-01T14:48:41;1.55;;;0.80;;
22040;SDS011;11184;52.444;13.578;2022-08-01T14:51:26;3.10;;;0.98;;
22040;SDS011;11184;52.444;13.578;2022-08-01T14:54:10;1.95;;;0.90;;
22040;SDS011;11184;52.444;13.578;2022-08-01T14:56:55;4.53;;;1.25;;
22040;SDS011;11184;52.444;13.578;2022-08-01T14:59:40;1.48;;;0.90;;
22040;SDS011;11184;52.444;13.578;2022-08-01T15:02:24;0.90;;;0.90;;
22040;SDS011;11184;52.444;13.578;2022-08-01T15:05:09;1.35;;;0.60;;
22040;SDS011;11184;52.444;13.578;2022-08-01T15:07:54;0.90;;;0.80;;
22040;SDS011;11184;52.444;13.578;2022-08-01T15:10:38;1.30;;;0.80;;
22040;SDS011;11184;52.444;13.578;2022-08-01T15:13:23;0.70;;;0.70;;
22040;SDS011;11184;52.444;13.578;2022-08-01T15:16:08;0.77;;;0.50;;
22040;SDS011;11184;52.444;13.578;2022-08-01T15:18:52;1.63;;;0.60;;
22040;SDS011;11184;52.444;13.578;2022-08-01T15:21:37;1.73;;;0.80;;
22040;SDS011;11184;52.444;13.578;2022-08-01T15:24:22;0.75;;;0.60;;
22040;SDS011;11184;52.444;13.578;2022-08-01T15:27:06;0.80;;;0.60;;
22040;SDS011;11184;52.444;13.578;2022-08-01T15:29:51;1.35;;;0.80;;
22040;SDS011;11184;52.444;13.578;2022-08-01T15:32:36;1.13;;;0.63;;
22040;SDS011;11184;52.444;13.578;2022-08-01T15:35:21;1.55;;;1.25;;
22040;SDS011;11184;52.444;13.578;2022-08-01T15:38:06;0.98;;;0.88;;
22040;SDS011;11184;52.444;13.578;2022-08-01T15:40:50;1.52;;;0.80;;
22040;SDS011;11184;52.444;13.578;2022-08-01T15:43:35;2.35;;;1.27;;
22040;SDS011;11184;52.444;13.578;2022-08-01T15:46:20;1.02;;;0.90;;
22040;SDS011;11184;52.444;13.578;2022-08-01T15:49:04;1.85;;;1.05;;
22040;SDS011;11184;52.444;13.578;2022-08-01T15:51:49;1.30;;;0.70;;
22040;SDS011;11184;52.444;13.578;2022-08-01T15:54:34;1.10;;;0.70;;
22040;SDS011;11184;52.444;13.578;2022-08-01T15:57:19;0.70;;;0.60;;
22040;SDS011;11184;52.444;13.578;2022-08-01T16:00:04;0.40;;;0.40;;
22040;SDS011;11184;52.444;13.578;2022-08-01T16:02:49;1.13;;;0.95;;
22040;SDS011;11184;52.444;13.578;2022-08-01T16:05:34;1.13;;;0.68;;
22040;SDS011;11184;52.444;13.578;2022-08-01T16:08:19;1.50;;;0.68;;
22040;SDS011;11184;52.444;13.578;2022-08-01T16:11:03;0.95;;;0.50;;
22040;SDS011;11184;52.444;13.578;2022-08-01T16:13:48;3.45;;;1.17;;
22040;SDS011;11184;52.444;13.578;2022-08-01T16:16:33;0.50;;;0.50;;
22040;SDS011;11184;52.444;13.578;2022-08-01T16:19:17;0.77;;;0.50;;
22040;SDS011;11184;52.444;13.578;2022-08-01T16:22:02;2.65;;;0.73;;
22040;SDS011;11184;52.444;13.578;2022-08-01T16:24:47;0.85;;;0.55;;
22040;SDS011;11184;52.444;13.578;2022-08-01T16:27:32;0.50;;;0.50;;
22040;SDS011;11184;52.444;13.578;2022-08-01T16:30:17;0.98;;;0.50;;
22040;SDS011;11184;52.444;13.578;2022-08-01T16:33:02;2.33;;;0.68;;
22040;SDS011;11184;52.444;13.578;2022-08-01T16:35:47;1.98;;;0.57;;
22040;SDS011;11184;52.444;13.578;2022-08-01T16:38:31;0.43;;;0.40;;
22040;SDS011;11184;52.444;13.578;2022-08-01T16:41:16;2.78;;;0.80;;
22040;SDS011;11184;52.444;13.578;2022-08-01T16:44:01;0.90;;;0.52;;
22040;SDS011;11184;52.444;13.578;2022-08-01T16:46:46;3.83;;;1.05;;
22040;SDS011;11184;52.444;13.578;2022-08-01T16:49:30;1.23;;;0.50;;
22040;SDS011;11184;52.444;13.578;2022-08-01T16:52:15;2.17;;;0.70;;
22040;SDS011;11184;52.444;13.578;2022-08-01T16:55:00;0.98;;;0.52;;